Time;durP1;ratioP1;P1;durP2;ratioP2;P2;SDS_P1;SDS_P2;PMS_P1;PMS_P2;Temp;Humidity;BMP_temperature;BMP_pressure;BME280_temperature;BME280_humidity;BME280_pressure;Samples;Min_cycle;Max_cycle;Signal;HPM_P1;HPM_P2
2022/10/14 00:01:53;;;;;;;52.95;36.30;;;;;;;11.51;100.00;101429.88;5010352;28;20037;-58
2022/10/14 00:04:18;;;;;;;52.92;35.78;;;;;;;11.53;100.00;101430.38;5009898;28;20442;-58
2022/10/14 00:06:44;;;;;;;50.20;36.90;;;;;;;11.55;100.00;101428.13;5010666;28;20113;-59
2022/10/14 00:09:09;;;;;;;47.30;35.30;;;;;;;11.57;100.00;101433.41;5010225;28;20445;-59
2022/10/14 00:11:36;;;;;;;51.30;36.97;;;;;;;11.58;100.00;101435.88;5010327;28;20029;-60
2022/10/14 00:14:09;;;;;;;49.03;35.25;;;;;;;11.60;100.00;101428.09;5010487;28;20033;-59
2022/10/14 00:16:37;;;;;;;49.22;35.95;;;;;;;11.61;100.00;101428.91;5010538;28;20038;-59
2022/10/14 00:19:04;;;;;;;46.90;34.03;;;;;;;11.66;100.00;101432.41;5010753;28;20033;-59
2022/10/14 00:21:30;;;;;;;48.63;36.17;;;;;;;11.67;100.00;101430.47;5009498;28;20080;-60
2022/10/14 00:23:56;;;;;;;48.95;35.10;;;;;;;11.69;100.00;101425.44;5010401;28;20087;-59
2022/10/14 00:26:25;;;;;;;47.08;35.65;;;;;;;11.65;100.00;101421.66;5010446;28;20528;-59
2022/10/14 00:28:51;;;;;;;45.33;33.50;;;;;;;11.71;100.00;101437.06;5010778;28;20088;-59
2022/10/14 00:31:17;;;;;;;45.92;33.20;;;;;;;11.71;100.00;101428.75;5010184;28;20482;-61
2022/10/14 00:33:42;;;;;;;46.58;33.28;;;;;;;11.73;100.00;101433.97;5010605;28;20128;-60
2022/10/14 00:36:10;;;;;;;49.35;34.70;;;;;;;11.72;100.00;101433.16;5010392;28;20030;-60
2022/10/14 00:38:36;;;;;;;48.35;34.10;;;;;;;11.75;100.00;101427.03;5009893;28;20030;-59
2022/10/14 00:41:02;;;;;;;46.80;34.75;;;;;;;11.74;100.00;101425.38;5009847;28;20033;-60
2022/10/14 00:43:29;;;;;;;46.40;34.35;;;;;;;11.75;100.00;101426.19;5009849;28;20450;-58
2022/10/14 00:45:54;;;;;;;49.05;35.20;;;;;;;11.77;100.00;101421.19;5012821;28;20076;-57
2022/10/14 00:48:23;;;;;;;46.35;34.55;;;;;;;11.74;100.00;101416.22;5013524;28;20469;-60
2022/10/14 00:50:53;;;;;;;46.10;33.22;;;;;;;11.73;100.00;101401.56;5013742;28;20108;-60
2022/10/14 00:53:18;;;;;;;46.70;33.80;;;;;;;11.76;100.00;101403.72;5013269;28;20075;-59
2022/10/14 00:55:44;;;;;;;45.95;34.53;;;;;;;11.76;100.00;101406.50;5013739;28;20060;-60
2022/10/14 00:58:10;;;;;;;47.80;34.70;;;;;;;11.79;100.00;101413.41;5013318;28;20026;-60
2022/10/14 01:00:36;;;;;;;45.58;33.33;;;;;;;11.80;100.00;101406.75;5013578;28;20084;-60
2022/10/14 01:03:16;;;;;;;43.92;33.35;;;;;;;11.81;100.00;101402.81;5013144;28;20029;-59
2022/10/14 01:05:51;;;;;;;47.53;33.60;;;;;;;11.80;100.00;101396.47;5013863;28;20399;-60
2022/10/14 01:08:36;;;;;;;46.55;34.15;;;;;;;11.81;100.00;101395.34;5013586;28;20064;-60
2022/10/14 01:11:29;;;;;;;45.75;33.28;;;;;;;11.81;100.00;101400.88;5013696;28;20053;-60
2022/10/14 01:14:07;;;;;;;47.67;34.00;;;;;;;11.80;100.00;101395.66;5013198;28;20100;-60
2022/10/14 01:16:46;;;;;;;43.47;33.03;;;;;;;11.80;100.00;101396.47;5013004;28;20038;-57
2022/10/14 01:19:45;;;;;;;46.05;32.50;;;;;;;11.84;100.00;101385.59;5013303;28;20136;-60
2022/10/14 01:22:20;;;;;;;43.42;32.38;;;;;;;11.82;100.00;101385.91;5013329;28;20037;-59
2022/10/14 01:25:21;;;;;;;44.05;31.63;;;;;;;11.83;100.00;101387.53;5013228;28;20070;-61
2022/10/14 01:27:59;;;;;;;45.10;31.38;;;;;;;11.82;100.00;101369.25;4983378;28;20157;-59
2022/10/14 01:30:32;;;;;;;41.58;31.42;;;;;;;11.76;100.00;101358.56;5012398;28;20482;-59
2022/10/14 01:33:35;;;;;;;44.25;31.67;;;;;;;11.81;100.00;101353.75;5012285;28;20034;-59
2022/10/14 01:36:19;;;;;;;42.20;31.13;;;;;;;11.81;100.00;101348.22;5012596;28;20092;-61
2022/10/14 01:38:57;;;;;;;41.22;31.05;;;;;;;11.79;100.00;101344.09;5012458;28;20053;-57
2022/10/14 01:41:28;;;;;;;39.78;30.40;;;;;;;11.75;100.00;101331.97;5013089;28;20033;-59
2022/10/14 01:44:00;;;;;;;40.20;29.00;;;;;;;11.73;100.00;101326.72;5012471;28;20053;-59
2022/10/14 01:46:28;;;;;;;39.63;29.23;;;;;;;11.76;100.00;101328.06;5012935;28;20139;-60
2022/10/14 01:49:00;;;;;;;41.35;30.50;;;;;;;11.75;100.00;101323.66;5012158;28;20045;-60
2022/10/14 01:51:35;;;;;;;39.03;29.80;;;;;;;11.68;100.00;101313.78;5012493;28;20549;-58
2022/10/14 01:54:07;;;;;;;41.05;28.63;;;;;;;11.74;100.00;101316.44;5012574;28;20026;-60
2022/10/14 01:56:34;;;;;;;39.65;29.80;;;;;;;11.74;100.00;101320.06;5011644;28;20041;-60
2022/10/14 01:59:01;;;;;;;37.95;30.27;;;;;;;11.74;100.00;101328.38;5012294;28;20179;-60
2022/10/14 02:01:26;;;;;;;41.75;30.38;;;;;;;11.74;100.00;101335.84;5011910;28;20026;-60
2022/10/14 02:03:51;;;;;;;39.90;30.15;;;;;;;11.73;100.00;101343.34;5012123;28;20053;-61
2022/10/14 02:06:31;;;;;;;41.22;29.13;;;;;;;11.71;100.00;101331.75;5011945;28;20513;-59
2022/10/14 02:09:27;;;;;;;40.15;29.13;;;;;;;11.71;100.00;101335.31;5012177;28;20065;-59
2022/10/14 02:12:18;;;;;;;38.25;29.38;;;;;;;11.73;100.00;101320.34;5012889;28;20033;-60
2022/10/14 02:15:01;;;;;;;39.30;28.27;;;;;;;11.71;100.00;101321.47;5012154;28;20113;-60
2022/10/14 02:17:57;;;;;;;40.10;30.00;;;;;;;11.72;100.00;101314.00;5011778;28;20045;-60
2022/10/14 02:20:56;;;;;;;40.47;29.77;;;;;;;11.70;100.00;101311.53;5010696;28;20042;-60
2022/10/14 02:23:26;;;;;;;38.80;28.27;;;;;;;11.69;100.00;101309.03;4997007;28;20056;-58
2022/10/14 02:25:53;;;;;;;41.97;29.92;;;;;;;11.69;100.00;101311.81;5012278;28;20022;-59
2022/10/14 02:28:22;;;;;;;41.28;30.63;;;;;;;11.64;100.00;101306.38;5012442;28;20022;-60
2022/10/14 02:30:58;;;;;;;39.83;28.30;;;;;;;11.70;100.00;101322.63;5011669;28;20069;-58
2022/10/14 02:33:29;;;;;;;39.05;29.08;;;;;;;11.64;100.00;101307.19;5011832;28;20033;-59
2022/10/14 02:35:55;;;;;;;41.88;28.60;;;;;;;11.70;100.00;101311.53;5012075;28;20483;-59
2022/10/14 02:38:22;;;;;;;38.35;28.73;;;;;;;11.69;100.00;101315.44;5011418;28;20026;-59
2022/10/14 02:40:49;;;;;;;38.92;28.08;;;;;;;11.69;100.00;101309.88;5011440;28;20030;-59
2022/10/14 02:43:15;;;;;;;40.10;29.02;;;;;;;11.68;100.00;101316.53;5011669;28;20055;-61
2022/10/14 02:45:42;;;;;;;38.17;28.25;;;;;;;11.68;100.00;101316.53;5011661;28;20045;-62
2022/10/14 02:48:08;;;;;;;36.90;27.65;;;;;;;11.70;100.00;101305.16;5011407;28;20054;-60
2022/10/14 02:50:34;;;;;;;38.10;28.52;;;;;;;11.69;100.00;101301.56;5010453;28;20027;-59
2022/10/14 02:52:59;;;;;;;40.92;29.05;;;;;;;11.70;100.00;101303.22;5011040;28;20504;-60
2022/10/14 02:55:25;;;;;;;41.22;27.70;;;;;;;11.72;100.00;101311.22;5011717;28;20076;-60
2022/10/14 02:57:50;;;;;;;38.83;29.10;;;;;;;11.71;100.00;101304.03;5011515;28;20033;-61
2022/10/14 03:00:16;;;;;;;39.08;27.52;;;;;;;11.73;100.00;101306.47;5011155;28;20034;-61
2022/10/14 03:02:41;;;;;;;39.22;28.10;;;;;;;11.72;100.00;101300.13;5011099;28;20037;-60
2022/10/14 03:05:07;;;;;;;38.53;27.95;;;;;;;11.71;100.00;101292.94;5011261;28;20374;-61
2022/10/14 03:07:33;;;;;;;40.00;29.38;;;;;;;11.72;100.00;101291.81;5011600;28;20026;-61
2022/10/14 03:09:58;;;;;;;38.95;27.67;;;;;;;11.73;100.00;101279.59;5010993;28;20034;-61
2022/10/14 03:12:24;;;;;;;47.55;29.48;;;;;;;11.74;100.00;101288.72;5010841;28;20387;-61
2022/10/14 03:14:49;;;;;;;40.38;28.63;;;;;;;11.74;100.00;101278.50;5011258;28;20478;-60
2022/10/14 03:17:14;;;;;;;40.50;27.23;;;;;;;11.71;100.00;101277.13;5010967;28;20026;-61
2022/10/14 03:19:40;;;;;;;39.00;27.98;;;;;;;11.76;100.00;101284.53;5011293;28;20022;-61
2022/10/14 03:22:05;;;;;;;40.03;28.73;;;;;;;11.77;100.00;101279.81;5010218;28;20022;-60
2022/10/14 03:24:30;;;;;;;41.15;28.30;;;;;;;11.77;100.00;101277.06;5011320;28;20036;-58
2022/10/14 03:26:56;;;;;;;40.10;28.63;;;;;;;11.76;100.00;101272.63;5011292;28;20026;-61
2022/10/14 03:29:21;;;;;;;38.95;28.48;;;;;;;11.77;100.00;101264.00;5011093;28;20026;-60
2022/10/14 03:31:46;;;;;;;37.90;28.15;;;;;;;11.78;100.00;101270.38;5011540;28;20200;-61
2022/10/14 03:34:11;;;;;;;37.92;27.58;;;;;;;11.78;100.00;101273.16;5010886;28;20053;-59
2022/10/14 03:36:37;;;;;;;38.33;28.25;;;;;;;11.78;100.00;101259.28;5009608;28;20040;-59
2022/10/14 03:39:02;;;;;;;37.45;27.00;;;;;;;11.77;100.00;101265.97;5011077;28;20033;-61
2022/10/14 03:41:28;;;;;;;39.20;29.73;;;;;;;11.79;100.00;101260.94;5010848;28;20069;-60
2022/10/14 03:43:53;;;;;;;38.63;29.05;;;;;;;11.78;100.00;101262.06;5011111;28;20107;-61
2022/10/14 03:46:18;;;;;;;38.55;28.48;;;;;;;11.79;100.00;101260.94;5010952;28;20045;-61
2022/10/14 03:48:44;;;;;;;39.30;28.65;;;;;;;11.79;100.00;101256.22;5010959;28;20034;-61
2022/10/14 03:51:09;;;;;;;38.95;28.40;;;;;;;11.80;100.00;101252.31;5010239;28;20041;-61
2022/10/14 03:53:34;;;;;;;38.40;27.27;;;;;;;11.81;100.00;101247.56;5010646;28;20482;-61
2022/10/14 03:55:59;;;;;;;37.85;27.20;;;;;;;11.81;100.00;101251.19;5009531;28;20108;-61
2022/10/14 03:58:25;;;;;;;39.40;27.50;;;;;;;11.81;100.00;101253.97;5011283;28;20474;-61
2022/10/14 04:00:50;;;;;;;38.47;28.17;;;;;;;11.81;100.00;101253.97;5009722;28;20034;-60
2022/10/14 04:03:15;;;;;;;38.35;28.42;;;;;;;11.81;100.00;101247.56;5010990;28;20149;-62
2022/10/14 04:05:41;;;;;;;37.15;27.05;;;;;;;11.81;100.00;101250.34;5010891;28;20451;-60
2022/10/14 04:08:06;;;;;;;40.05;27.80;;;;;;;11.82;100.00;101241.75;5009894;28;20105;-61
2022/10/14 04:10:31;;;;;;;39.58;27.10;;;;;;;11.82;100.00;101235.38;5011328;28;20072;-62
2022/10/14 04:12:57;;;;;;;37.95;27.33;;;;;;;11.82;100.00;101230.66;5011086;28;20398;-61
2022/10/14 04:15:22;;;;;;;37.67;27.33;;;;;;;11.82;100.00;101232.59;5009972;28;20091;-61
2022/10/14 04:17:48;;;;;;;38.10;27.35;;;;;;;11.83;100.00;101224.00;5011487;28;20022;-61
2022/10/14 04:20:14;;;;;;;39.42;27.13;;;;;;;11.81;100.00;101229.00;5012305;28;20397;-59
2022/10/14 04:22:39;;;;;;;38.05;29.65;;;;;;;11.85;100.00;101229.22;5015091;28;20113;-61
2022/10/14 04:25:06;;;;;;;39.20;25.80;;;;;;;11.85;100.00;101221.72;5015068;28;20030;-60
2022/10/14 04:27:31;;;;;;;36.40;25.88;;;;;;;11.85;100.00;101232.00;5014685;28;20061;-62
2022/10/14 04:29:56;;;;;;;36.00;26.10;;;;;;;11.86;100.00;101217.00;5014818;28;20053;-61
2022/10/14 04:32:22;;;;;;;33.65;25.13;;;;;;;11.86;100.00;101214.25;5014728;28;20057;-60
2022/10/14 04:34:47;;;;;;;36.35;26.73;;;;;;;11.86;100.00;101223.34;5014810;28;20482;-60
2022/10/14 04:37:12;;;;;;;35.42;26.95;;;;;;;11.85;100.00;101216.16;5014827;28;20018;-61
2022/10/14 04:39:37;;;;;;;35.75;27.10;;;;;;;11.87;100.00;101213.13;5013419;28;20034;-59
2022/10/14 04:42:03;;;;;;;34.70;26.23;;;;;;;11.86;100.00;101209.50;5014693;28;20026;-60
2022/10/14 04:44:28;;;;;;;35.25;26.45;;;;;;;11.84;100.00;101206.25;5014415;28;20022;-60
2022/10/14 04:46:54;;;;;;;34.58;26.00;;;;;;;11.86;100.00;101206.72;5013657;28;20065;-58
2022/10/14 04:49:19;;;;;;;35.78;26.92;;;;;;;11.88;100.00;101209.22;5012959;28;20033;-60
2022/10/14 04:51:44;;;;;;;34.47;25.60;;;;;;;11.88;100.00;101211.16;5013921;28;20387;-61
2022/10/14 04:54:10;;;;;;;33.72;24.77;;;;;;;11.88;100.00;101212.00;5013207;28;20026;-61
2022/10/14 04:56:35;;;;;;;35.60;25.67;;;;;;;11.87;100.00;101204.78;5012329;28;20064;-62
2022/10/14 04:59:01;;;;;;;35.05;25.48;;;;;;;11.89;100.00;101202.53;5013472;28;20061;-61
2022/10/14 05:01:26;;;;;;;32.45;24.58;;;;;;;11.89;100.00;101199.78;5013718;28;20030;-60
2022/10/14 05:03:52;;;;;;;34.58;25.63;;;;;;;11.91;100.00;101202.22;5013789;28;20087;-61
2022/10/14 05:06:17;;;;;;;35.17;25.25;;;;;;;11.90;100.00;101195.88;5013575;28;20584;-61
2022/10/14 05:08:42;;;;;;;33.70;25.25;;;;;;;11.90;100.00;101195.88;5013436;28;20053;-61
2022/10/14 05:11:08;;;;;;;34.17;24.60;;;;;;;11.90;100.00;101193.09;5013714;28;20033;-60
2022/10/14 05:13:33;;;;;;;33.75;24.73;;;;;;;11.91;100.00;101182.81;5013401;28;20430;-60
2022/10/14 05:15:59;;;;;;;34.40;25.08;;;;;;;11.91;100.00;101175.31;5013948;28;20034;-60
2022/10/14 05:18:24;;;;;;;32.15;24.05;;;;;;;11.94;100.00;101171.13;5014188;28;20034;-61
2022/10/14 05:20:49;;;;;;;34.47;24.23;;;;;;;11.98;100.00;101186.88;5013403;28;20449;-61
2022/10/14 05:23:15;;;;;;;34.15;24.38;;;;;;;11.95;100.00;101181.91;5013805;28;20030;-59
2022/10/14 05:25:41;;;;;;;32.00;23.40;;;;;;;11.95;100.00;101183.88;5013564;28;20564;-59
2022/10/14 05:28:06;;;;;;;32.80;23.30;;;;;;;11.96;100.00;101177.16;5012978;28;20098;-60
2022/10/14 05:30:31;;;;;;;29.83;22.70;;;;;;;11.97;100.00;101170.50;5012290;28;20026;-59
2022/10/14 05:32:56;;;;;;;32.78;23.58;;;;;;;11.96;100.00;101163.31;5012957;28;20033;-60
2022/10/14 05:35:22;;;;;;;34.17;23.48;;;;;;;11.96;100.00;101154.97;5013615;28;20026;-60
2022/10/14 05:37:47;;;;;;;34.92;23.98;;;;;;;11.96;100.00;101150.28;5012962;28;20253;-58
2022/10/14 05:40:12;;;;;;;32.42;23.92;;;;;;;11.95;100.00;101143.09;5012716;28;20096;-60
2022/10/14 05:42:38;;;;;;;32.67;22.73;;;;;;;11.95;100.00;101148.63;5012796;28;20450;-58
2022/10/14 05:45:04;;;;;;;33.58;23.42;;;;;;;11.99;100.00;101143.31;5012164;28;20075;-58
2022/10/14 05:47:29;;;;;;;30.98;22.08;;;;;;;11.96;100.00;101136.41;5012462;28;20095;-59
2022/10/14 05:49:54;;;;;;;29.67;22.50;;;;;;;11.97;100.00;101134.44;5012494;28;20049;-59
2022/10/14 05:52:20;;;;;;;30.67;21.98;;;;;;;11.97;100.00;101137.22;5012357;28;20024;-59
2022/10/14 05:54:45;;;;;;;29.63;22.17;;;;;;;11.99;100.00;101137.78;5011432;28;20030;-60
2022/10/14 05:57:10;;;;;;;30.38;22.83;;;;;;;11.99;100.00;101135.84;5012952;28;20053;-59
2022/10/14 05:59:36;;;;;;;35.78;28.67;;;;;;;12.01;100.00;101138.28;5012567;28;20022;-60
2022/10/14 06:02:01;;;;;;;29.20;21.92;;;;;;;12.01;100.00;101132.75;5013546;28;20026;-60
2022/10/14 06:04:27;;;;;;;29.50;20.50;;;;;;;12.02;100.00;101139.94;5013064;28;20100;-59
2022/10/14 06:06:53;;;;;;;27.95;20.63;;;;;;;12.02;100.00;101126.06;5013567;28;20045;-60
2022/10/14 06:09:18;;;;;;;29.38;21.25;;;;;;;12.02;100.00;101131.63;5013618;28;20049;-59
2022/10/14 06:11:44;;;;;;;27.33;20.77;;;;;;;12.04;100.00;101131.31;5013300;28;20101;-60
2022/10/14 06:14:10;;;;;;;29.25;21.30;;;;;;;12.04;100.00;101125.75;5012725;28;20431;-60
2022/10/14 06:16:35;;;;;;;30.52;21.13;;;;;;;12.05;100.00;101125.44;5013461;28;20450;-60
2022/10/14 06:19:00;;;;;;;27.90;20.65;;;;;;;12.05;100.00;101124.63;5012862;28;20033;-60
2022/10/14 06:21:26;;;;;;;29.85;20.85;;;;;;;12.07;100.00;101131.50;5012886;28;20052;-61
2022/10/14 06:23:51;;;;;;;29.92;20.02;;;;;;;12.06;100.00;101123.50;5012808;28;20030;-61
2022/10/14 06:26:17;;;;;;;29.52;20.75;;;;;;;12.07;100.00;101120.41;5013092;28;20030;-60
2022/10/14 06:28:42;;;;;;;29.70;19.90;;;;;;;12.08;100.00;101124.81;5012748;28;20056;-61
2022/10/14 06:31:07;;;;;;;28.00;20.30;;;;;;;12.09;100.00;101120.13;5012566;28;20033;-61
2022/10/14 06:33:33;;;;;;;29.63;20.30;;;;;;;12.09;100.00;101117.34;5012675;28;20033;-61
2022/10/14 06:36:01;;;;;;;30.00;20.98;;;;;;;12.00;100.00;101106.94;5012807;28;20152;-61
2022/10/14 06:38:26;;;;;;;28.75;19.75;;;;;;;12.12;100.00;101114.75;5012745;28;20029;-60
2022/10/14 06:40:53;;;;;;;28.08;19.98;;;;;;;12.16;100.00;101114.97;5012639;28;20034;-61
2022/10/14 06:43:20;;;;;;;27.65;19.15;;;;;;;12.16;100.00;101114.97;5012076;28;20080;-61
2022/10/14 06:45:46;;;;;;;27.45;20.13;;;;;;;12.19;100.00;101116.28;5012178;28;20072;-59
2022/10/14 06:48:11;;;;;;;27.25;20.00;;;;;;;12.20;100.00;101113.19;5012770;28;20037;-58
2022/10/14 06:50:37;;;;;;;27.10;19.83;;;;;;;12.21;100.00;101114.84;5011899;28;20022;-59
2022/10/14 06:53:02;;;;;;;29.73;20.40;;;;;;;12.24;100.00;101114.22;5012041;28;20029;-58
2022/10/14 06:58:18;;;;;;;28.73;20.98;;;;;;;12.26;100.00;101111.13;5064277;22;20434;-61
2022/10/14 07:00:44;;;;;;;27.60;19.40;;;;;;;12.29;100.00;101108.56;5038216;28;20346;-63
2022/10/14 07:03:09;;;;;;;26.98;20.80;;;;;;;12.31;100.00;101100.75;5034182;28;20080;-63
2022/10/14 07:05:34;;;;;;;27.50;20.50;;;;;;;12.34;100.00;101090.97;5028848;28;20121;-63
2022/10/14 07:08:00;;;;;;;26.45;20.35;;;;;;;12.34;100.00;101093.75;5032489;28;20058;-63
2022/10/14 07:10:25;;;;;;;26.80;20.02;;;;;;;12.37;100.00;101087.59;5027829;28;20434;-63
2022/10/14 07:12:54;;;;;;;28.75;19.83;;;;;;;12.38;100.00;101094.78;5029026;28;20129;-62
2022/10/14 07:15:19;;;;;;;27.52;20.02;;;;;;;12.41;100.00;101102.50;5043230;28;20037;-62
2022/10/14 07:17:45;;;;;;;28.77;20.30;;;;;;;12.43;100.00;101102.16;5029006;28;20038;-62
2022/10/14 07:20:11;;;;;;;27.27;19.63;;;;;;;12.44;100.00;101096.28;5029272;28;20025;-62
2022/10/14 07:22:36;;;;;;;28.45;19.90;;;;;;;12.47;100.00;101089.28;5042478;28;20025;-63
2022/10/14 07:25:03;;;;;;;29.13;19.13;;;;;;;12.48;100.00;101091.78;5044988;28;20033;-62
2022/10/14 07:27:28;;;;;;;25.90;19.20;;;;;;;12.51;100.00;101103.38;5047646;28;20079;-63
2022/10/14 07:29:54;;;;;;;26.73;19.77;;;;;;;12.52;100.00;101094.75;5029050;28;20407;-63
2022/10/14 07:32:19;;;;;;;27.23;19.92;;;;;;;12.53;100.00;101101.94;5047047;28;20037;-62
2022/10/14 07:34:44;;;;;;;27.17;19.27;;;;;;;12.55;100.00;101101.59;5046712;28;20132;-63
2022/10/14 07:37:10;;;;;;;26.90;19.27;;;;;;;12.57;100.00;101116.00;5047012;28;20057;-63
2022/10/14 07:39:35;;;;;;;26.10;19.20;;;;;;;12.56;100.00;101098.53;5046945;28;20077;-63
2022/10/14 07:42:00;;;;;;;25.70;18.42;;;;;;;12.62;100.00;101102.81;5046971;28;20131;-64
2022/10/14 07:44:26;;;;;;;25.38;18.40;;;;;;;12.62;100.00;101097.28;5046393;28;20030;-62
2022/10/14 07:46:51;;;;;;;26.20;19.17;;;;;;;12.64;100.00;101103.34;5046878;28;20036;-63
2022/10/14 07:49:20;;;;;;;27.08;19.23;;;;;;;12.67;100.00;101093.56;5046607;28;20021;-63
2022/10/14 07:51:46;;;;;;;26.92;19.15;;;;;;;12.68;100.00;101091.59;5046902;28;20040;-63
2022/10/14 07:54:18;;;;;;;26.63;19.45;;;;;;;12.67;100.00;101081.63;5046572;28;20135;-62
2022/10/14 07:56:44;;;;;;;27.58;20.10;;;;;;;12.74;100.00;101093.13;5046740;28;20120;-64
2022/10/14 07:59:10;;;;;;;27.20;20.05;;;;;;;12.77;100.00;101092.47;5046558;28;20053;-64
2022/10/14 08:01:36;;;;;;;26.30;19.45;;;;;;;12.79;100.00;101084.66;5046561;28;20056;-62
2022/10/14 08:04:02;;;;;;;25.60;18.70;;;;;;;12.83;100.00;101080.13;5046922;28;20017;-62
2022/10/14 08:06:28;;;;;;;25.67;19.30;;;;;;;12.87;100.00;101083.91;5025457;28;20084;-64
2022/10/14 08:08:53;;;;;;;26.73;19.67;;;;;;;12.90;100.00;101080.50;5018052;28;20058;-63
2022/10/14 08:11:23;;;;;;;26.65;20.02;;;;;;;12.92;100.00;101081.00;5013577;28;20480;-64
2022/10/14 08:13:49;;;;;;;26.67;20.27;;;;;;;12.93;100.00;101084.59;5013586;28;20057;-62
2022/10/14 08:16:18;;;;;;;25.55;19.30;;;;;;;12.97;100.00;101084.78;5013082;28;20034;-63
2022/10/14 08:18:44;;;;;;;24.77;19.33;;;;;;;13.00;100.00;101079.41;5013043;28;20033;-63
2022/10/14 08:21:10;;;;;;;25.25;18.23;;;;;;;13.04;100.00;101083.19;5021950;28;20049;-63
2022/10/14 08:23:35;;;;;;;24.13;18.80;;;;;;;13.10;100.00;101070.81;5032896;28;20470;-64
2022/10/14 08:26:01;;;;;;;26.52;19.23;;;;;;;13.14;100.00;101070.19;5032513;28;20033;-63
2022/10/14 08:28:26;;;;;;;24.85;17.33;;;;;;;13.21;100.00;101060.28;5032506;28;20048;-63
2022/10/14 08:30:52;;;;;;;24.95;17.80;;;;;;;13.33;100.00;101061.59;5032334;28;20033;-63
2022/10/14 08:33:17;;;;;;;25.08;18.23;;;;;;;13.40;100.00;101067.56;5032004;28;20376;-64
2022/10/14 08:35:43;;;;;;;25.98;18.63;;;;;;;13.52;100.00;101067.78;5019931;28;20040;-62
2022/10/14 08:38:09;;;;;;;24.63;18.15;;;;;;;13.60;100.00;101068.16;5032237;28;20462;-63
2022/10/14 08:40:58;;;;;;;24.98;18.73;;;;;;;13.67;100.00;101071.28;5014076;28;20566;-62
2022/10/14 08:43:33;;;;;;;23.42;16.75;;;;;;;13.67;100.00;101054.59;5031123;28;20033;-64
2022/10/14 08:46:19;;;;;;;25.95;17.77;;;;;;;13.78;100.00;101066.22;5029425;28;20372;-62
2022/10/14 08:48:46;;;;;;;23.38;17.77;;;;;;;13.75;100.00;101064.09;5030820;28;20099;-64
2022/10/14 08:51:18;;;;;;;25.02;18.27;;;;;;;13.79;100.00;101067.88;5031802;28;20080;-64
2022/10/14 08:53:55;;;;;;;23.60;17.48;;;;;;;13.78;100.00;101066.22;5031936;28;20389;-64
2022/10/14 08:56:22;;;;;;;23.95;17.75;;;;;;;13.71;100.00;101052.78;5032000;28;20029;-64
2022/10/14 08:58:49;;;;;;;23.65;17.73;;;;;;;13.83;100.00;101066.91;5040227;28;20045;-63
2022/10/14 09:01:23;;;;;;;23.48;17.80;;;;;;;13.83;100.00;101060.53;5051445;28;20029;-63
2022/10/14 09:04:02;;;;;;;23.25;17.63;;;;;;;13.78;100.00;101063.44;5050792;28;20170;-63
2022/10/14 09:06:33;;;;;;;22.70;17.30;;;;;;;13.79;100.00;101070.66;5050783;28;20033;-64
2022/10/14 09:09:40;;;;;;;24.67;17.45;;;;;;;13.82;100.00;101064.47;5050302;28;20166;-64
2022/10/14 09:12:12;;;;;;;23.42;17.70;;;;;;;13.72;100.00;101055.28;5029741;28;20094;-63
2022/10/14 09:14:43;;;;;;;23.63;17.33;;;;;;;13.77;100.00;101061.81;5050902;28;20067;-62
2022/10/14 09:17:32;;;;;;;23.67;16.65;;;;;;;13.88;100.00;101063.16;5049994;28;20045;-63
2022/10/14 09:20:14;;;;;;;23.30;17.13;;;;;;;13.92;100.00;101055.81;5047695;28;20037;-63
2022/10/14 09:22:39;;;;;;;23.77;16.83;;;;;;;13.96;100.00;101059.56;5031480;28;20112;-62
2022/10/14 09:25:13;;;;;;;23.08;17.95;;;;;;;13.93;100.00;101031.59;5049883;28;20057;-65
2022/10/14 09:27:39;;;;;;;22.45;16.75;;;;;;;14.05;100.00;101056.81;5050698;28;20029;-63
2022/10/14 09:30:09;;;;;;;22.75;16.38;;;;;;;14.11;100.00;101043.56;5050365;28;20039;-63
2022/10/14 09:32:47;;;;;;;23.15;17.15;;;;;;;14.16;100.00;101048.97;5050338;28;20102;-63
2022/10/14 09:35:21;;;;;;;23.48;17.88;;;;;;;14.21;100.00;101037.69;5049749;28;20112;-63
2022/10/14 09:37:47;;;;;;;22.45;16.40;;;;;;;14.16;100.00;101013.63;5050190;28;20090;-63
2022/10/14 09:40:12;;;;;;;22.50;16.40;;;;;;;14.31;100.00;101040.13;5050014;28;20025;-63
2022/10/14 09:42:52;;;;;;;21.42;16.25;;;;;;;14.26;100.00;101020.03;5050108;28;20064;-63
2022/10/14 09:45:21;;;;;;;22.48;16.20;;;;;;;14.42;100.00;101032.28;5048570;28;20108;-64
2022/10/14 09:47:55;;;;;;;22.30;16.25;;;;;;;14.51;100.00;101035.88;5049974;28;20061;-62
2022/10/14 09:50:43;;;;;;;22.08;17.15;;;;;;;14.57;100.00;101027.34;5032234;28;20037;-62
2022/10/14 09:53:20;;;;;;;21.88;16.20;;;;;;;14.60;100.00;101026.72;5050034;28;20088;-64
2022/10/14 09:55:48;;;;;;;23.67;17.20;;;;;;;14.54;100.00;101019.69;5031068;28;20392;-63
2022/10/14 09:58:17;;;;;;;23.48;17.00;;;;;;;14.63;100.00;101029.66;5031461;28;20472;-61
2022/10/14 10:00:44;;;;;;;22.08;16.60;;;;;;;14.60;100.00;101023.91;5049606;28;20077;-63
2022/10/14 10:03:24;;;;;;;21.67;16.67;;;;;;;14.62;100.00;101014.09;5049657;28;20028;-63
2022/10/14 10:06:00;;;;;;;22.35;16.10;;;;;;;14.63;100.00;101015.72;5049756;28;20091;-63
2022/10/14 10:08:26;;;;;;;22.55;15.93;;;;;;;14.71;100.00;101018.84;5049774;28;20025;-63
2022/10/14 10:11:00;;;;;;;21.25;15.55;;;;;;;14.71;100.00;101016.06;5049702;28;20044;-61
2022/10/14 10:13:39;;;;;;;23.63;16.25;;;;;;;14.61;100.00;101014.44;5049627;28;20108;-61
2022/10/14 10:16:06;;;;;;;22.23;16.27;;;;;;;14.54;100.00;101019.69;5029658;28;20126;-62
2022/10/14 10:18:32;;;;;;;20.40;14.93;;;;;;;14.56;100.00;101017.38;5032095;28;20025;-61
2022/10/14 10:21:14;;;;;;;22.35;15.45;;;;;;;14.50;100.00;101011.13;5031697;28;20461;-63
2022/10/14 10:23:50;;;;;;;22.25;15.77;;;;;;;14.48;100.00;101007.88;5032531;28;20448;-62
2022/10/14 10:26:24;;;;;;;21.67;16.23;;;;;;;14.50;100.00;101014.75;5031843;28;20031;-62
2022/10/14 10:28:51;;;;;;;21.02;15.13;;;;;;;14.51;100.00;101010.00;5032314;28;20033;-62
2022/10/14 10:31:31;;;;;;;21.45;15.15;;;;;;;14.55;100.00;101007.41;5031869;28;20044;-62
2022/10/14 10:34:02;;;;;;;21.00;15.15;;;;;;;14.56;100.00;101009.84;5031905;28;20033;-62
2022/10/14 10:36:36;;;;;;;22.02;16.13;;;;;;;14.56;100.00;101006.22;5031352;28;20025;-63
2022/10/14 10:39:37;;;;;;;21.05;15.38;;;;;;;14.50;100.00;100998.06;5031774;28;20037;-62
2022/10/14 10:42:19;;;;;;;21.20;14.57;;;;;;;14.54;100.00;100998.22;5031541;28;20476;-62
2022/10/14 10:44:57;;;;;;;20.88;14.60;;;;;;;14.55;100.00;100999.06;5031931;28;20437;-61
2022/10/14 10:47:42;;;;;;;21.65;15.07;;;;;;;14.53;100.00;100993.00;5031755;28;20021;-60
2022/10/14 10:50:22;;;;;;;21.15;14.82;;;;;;;14.50;100.00;100991.66;5031783;28;20083;-61
2022/10/14 10:53:28;;;;;;;22.45;15.70;;;;;;;14.47;100.00;100993.13;5031228;28;20029;-62
2022/10/14 10:56:18;;;;;;;22.20;14.75;;;;;;;14.47;100.00;100997.91;5018382;28;20124;-61
2022/10/14 10:59:18;;;;;;;22.02;15.18;;;;;;;14.43;100.00;100986.63;5031137;28;20045;-62
2022/10/14 11:02:11;;;;;;;22.63;14.93;;;;;;;14.58;100.00;100981.66;5012701;28;20041;-63
2022/10/14 11:04:59;;;;;;;22.90;14.95;;;;;;;14.70;100.00;100981.84;5011654;28;20021;-62
2022/10/14 11:14:03;;;;;;;;;;;;;;;14.82;100.00;100975.59;5030992;28;20114;-62
2022/10/14 11:16:48;;;;;;;20.02;13.40;;;;;;;14.73;100.00;100961.69;5030563;28;20010;-63
2022/10/14 11:19:38;;;;;;;22.35;14.77;;;;;;;14.74;100.00;100965.28;5012541;28;20128;-61
2022/10/14 11:22:15;;;;;;;21.23;14.23;;;;;;;14.74;100.00;100956.94;5031084;28;20168;-61
2022/10/14 11:25:02;;;;;;;22.08;14.02;;;;;;;14.78;100.00;100969.88;5031343;28;20120;-60